sensor_id;sensor_type;location;lat;lon;timestamp;P1;durP1;ratioP1;P2;durP2;ratioP2
65399;SDS011;52007;50.834;-0.136;2022-07-03T00:01:20;6.15;;;1.70;;
65399;SDS011;52007;50.834;-0.136;2022-07-03T00:03:46;6.70;;;2.42;;
65399;SDS011;52007;50.834;-0.136;2022-07-03T00:06:12;9.68;;;2.55;;
65399;SDS011;52007;50.834;-0.136;2022-07-03T00:08:38;10.38;;;2.58;;
65399;SDS011;52007;50.834;-0.136;2022-07-03T00:11:07;6.28;;;2.08;;
65399;SDS011;52007;50.834;-0.136;2022-07-03T00:13:34;9.40;;;1.40;;
65399;SDS011;52007;50.834;-0.136;2022-07-03T00:16:00;8.82;;;1.45;;
65399;SDS011;52007;50.834;-0.136;2022-07-03T00:18:26;7.80;;;1.80;;
65399;SDS011;52007;50.834;-0.136;2022-07-03T00:21:11;7.30;;;1.20;;
65399;SDS011;52007;50.834;-0.136;2022-07-03T00:26:18;7.95;;;2.13;;
65399;SDS011;52007;50.834;-0.136;2022-07-03T00:28:45;7.25;;;1.33;;
65399;SDS011;52007;50.834;-0.136;2022-07-03T00:31:11;4.20;;;1.15;;
65399;SDS011;52007;50.834;-0.136;2022-07-03T00:33:37;5.05;;;1.23;;
65399;SDS011;52007;50.834;-0.136;2022-07-03T00:36:03;8.00;;;1.63;;
65399;SDS011;52007;50.834;-0.136;2022-07-03T00:38:29;7.03;;;1.33;;
65399;SDS011;52007;50.834;-0.136;2022-07-03T00:40:55;10.57;;;1.50;;
65399;SDS011;52007;50.834;-0.136;2022-07-03T00:43:21;4.10;;;1.20;;
65399;SDS011;52007;50.834;-0.136;2022-07-03T00:45:48;6.88;;;1.20;;
65399;SDS011;52007;50.834;-0.136;2022-07-03T00:48:15;3.95;;;1.30;;
65399;SDS011;52007;50.834;-0.136;2022-07-03T00:50:47;7.47;;;1.40;;
65399;SDS011;52007;50.834;-0.136;2022-07-03T00:53:23;5.35;;;1.10;;
65399;SDS011;52007;50.834;-0.136;2022-07-03T00:55:53;8.68;;;1.58;;
65399;SDS011;52007;50.834;-0.136;2022-07-03T00:58:20;4.03;;;1.10;;
65399;SDS011;52007;50.834;-0.136;2022-07-03T01:00:46;10.93;;;1.40;;
65399;SDS011;52007;50.834;-0.136;2022-07-03T01:03:17;7.47;;;1.15;;
65399;SDS011;52007;50.834;-0.136;2022-07-03T01:05:53;3.90;;;1.35;;
65399;SDS011;52007;50.834;-0.136;2022-07-03T01:08:28;4.03;;;1.35;;
65399;SDS011;52007;50.834;-0.136;2022-07-03T01:16:40;3.47;;;0.98;;
65399;SDS011;52007;50.834;-0.136;2022-07-03T01:27:18;3.72;;;1.25;;
65399;SDS011;52007;50.834;-0.136;2022-07-03T01:32:44;3.10;;;1.13;;
65399;SDS011;52007;50.834;-0.136;2022-07-03T01:35:20;4.32;;;1.17;;
65399;SDS011;52007;50.834;-0.136;2022-07-03T01:37:48;7.80;;;1.58;;
65399;SDS011;52007;50.834;-0.136;2022-07-03T01:40:13;5.32;;;1.63;;
65399;SDS011;52007;50.834;-0.136;2022-07-03T01:42:39;4.78;;;1.20;;
65399;SDS011;52007;50.834;-0.136;2022-07-03T01:45:08;2.50;;;1.13;;
65399;SDS011;52007;50.834;-0.136;2022-07-03T01:47:34;4.03;;;1.05;;
65399;SDS011;52007;50.834;-0.136;2022-07-03T01:50:03;4.45;;;1.08;;
65399;SDS011;52007;50.834;-0.136;2022-07-03T01:52:30;4.53;;;0.80;;
65399;SDS011;52007;50.834;-0.136;2022-07-03T01:55:00;2.22;;;0.80;;
65399;SDS011;52007;50.834;-0.136;2022-07-03T01:57:32;2.13;;;0.93;;
65399;SDS011;52007;50.834;-0.136;2022-07-03T02:00:05;3.70;;;1.00;;
65399;SDS011;52007;50.834;-0.136;2022-07-03T02:02:33;4.53;;;0.90;;
65399;SDS011;52007;50.834;-0.136;2022-07-03T02:05:00;3.13;;;0.80;;
65399;SDS011;52007;50.834;-0.136;2022-07-03T02:07:37;4.47;;;0.80;;
65399;SDS011;52007;50.834;-0.136;2022-07-03T02:10:09;4.35;;;0.73;;
65399;SDS011;52007;50.834;-0.136;2022-07-03T02:12:40;4.38;;;0.98;;
65399;SDS011;52007;50.834;-0.136;2022-07-03T02:15:10;6.07;;;1.23;;
65399;SDS011;52007;50.834;-0.136;2022-07-03T02:17:38;5.30;;;0.80;;
65399;SDS011;52007;50.834;-0.136;2022-07-03T02:20:07;4.30;;;1.10;;
65399;SDS011;52007;50.834;-0.136;2022-07-03T02:22:35;1.80;;;0.52;;
65399;SDS011;52007;50.834;-0.136;2022-07-03T02:25:03;3.50;;;0.80;;
65399;SDS011;52007;50.834;-0.136;2022-07-03T02:30:09;5.03;;;1.00;;
65399;SDS011;52007;50.834;-0.136;2022-07-03T02:32:39;5.25;;;1.02;;
65399;SDS011;52007;50.834;-0.136;2022-07-03T02:35:12;3.05;;;0.90;;
65399;SDS011;52007;50.834;-0.136;2022-07-03T02:40:32;2.47;;;0.90;;
65399;SDS011;52007;50.834;-0.136;2022-07-03T02:48:31;2.00;;;0.47;;
65399;SDS011;52007;50.834;-0.136;2022-07-03T02:51:05;1.08;;;0.57;;
65399;SDS011;52007;50.834;-0.136;2022-07-03T02:53:43;3.53;;;1.05;;
65399;SDS011;52007;50.834;-0.136;2022-07-03T03:04:32;5.72;;;0.73;;
65399;SDS011;52007;50.834;-0.136;2022-07-03T03:07:03;7.57;;;0.90;;
65399;SDS011;52007;50.834;-0.136;2022-07-03T03:09:55;1.83;;;0.60;;
65399;SDS011;52007;50.834;-0.136;2022-07-03T03:12:21;9.13;;;1.00;;
65399;SDS011;52007;50.834;-0.136;2022-07-03T03:14:54;2.80;;;0.63;;
65399;SDS011;52007;50.834;-0.136;2022-07-03T03:17:26;2.63;;;1.00;;
65399;SDS011;52007;50.834;-0.136;2022-07-03T03:19:55;5.57;;;1.10;;
65399;SDS011;52007;50.834;-0.136;2022-07-03T03:22:28;5.03;;;1.15;;
65399;SDS011;52007;50.834;-0.136;2022-07-03T03:25:04;6.43;;;0.90;;
65399;SDS011;52007;50.834;-0.136;2022-07-03T03:27:30;3.25;;;0.80;;
65399;SDS011;52007;50.834;-0.136;2022-07-03T03:29:56;4.82;;;1.17;;
65399;SDS011;52007;50.834;-0.136;2022-07-03T03:32:21;4.95;;;0.90;;
65399;SDS011;52007;50.834;-0.136;2022-07-03T03:34:48;1.52;;;0.70;;
65399;SDS011;52007;50.834;-0.136;2022-07-03T03:37:14;2.85;;;0.73;;
65399;SDS011;52007;50.834;-0.136;2022-07-03T03:39:41;6.57;;;0.88;;
65399;SDS011;52007;50.834;-0.136;2022-07-03T03:42:07;2.65;;;0.60;;
65399;SDS011;52007;50.834;-0.136;2022-07-03T03:44:34;2.92;;;0.90;;
65399;SDS011;52007;50.834;-0.136;2022-07-03T03:47:00;5.00;;;0.90;;
65399;SDS011;52007;50.834;-0.136;2022-07-03T03:49:26;3.25;;;1.08;;
65399;SDS011;52007;50.834;-0.136;2022-07-03T03:51:53;6.40;;;1.00;;
65399;SDS011;52007;50.834;-0.136;2022-07-03T03:54:20;3.67;;;0.93;;
65399;SDS011;52007;50.834;-0.136;2022-07-03T03:56:46;7.50;;;1.02;;
65399;SDS011;52007;50.834;-0.136;2022-07-03T03:59:11;5.28;;;1.33;;
65399;SDS011;52007;50.834;-0.136;2022-07-03T04:01:37;1.63;;;0.80;;
65399;SDS011;52007;50.834;-0.136;2022-07-03T04:04:04;3.17;;;0.88;;
65399;SDS011;52007;50.834;-0.136;2022-07-03T04:06:29;2.55;;;0.80;;
65399;SDS011;52007;50.834;-0.136;2022-07-03T04:08:55;2.55;;;0.63;;
65399;SDS011;52007;50.834;-0.136;2022-07-03T04:11:20;4.40;;;0.77;;
65399;SDS011;52007;50.834;-0.136;2022-07-03T04:13:46;3.63;;;0.85;;
65399;SDS011;52007;50.834;-0.136;2022-07-03T04:16:12;1.88;;;0.60;;
65399;SDS011;52007;50.834;-0.136;2022-07-03T04:18:38;6.18;;;1.00;;
65399;SDS011;52007;50.834;-0.136;2022-07-03T04:21:03;1.83;;;0.73;;
65399;SDS011;52007;50.834;-0.136;2022-07-03T04:23:30;3.25;;;1.13;;
65399;SDS011;52007;50.834;-0.136;2022-07-03T04:26:01;3.50;;;0.70;;
65399;SDS011;52007;50.834;-0.136;2022-07-03T04:28:28;3.03;;;0.60;;
65399;SDS011;52007;50.834;-0.136;2022-07-03T04:30:57;1.95;;;0.70;;
65399;SDS011;52007;50.834;-0.136;2022-07-03T04:33:22;3.92;;;1.02;;
65399;SDS011;52007;50.834;-0.136;2022-07-03T04:35:48;3.13;;;0.73;;
65399;SDS011;52007;50.834;-0.136;2022-07-03T04:38:14;2.33;;;1.00;;
65399;SDS011;52007;50.834;-0.136;2022-07-03T04:40:40;5.07;;;0.77;;
65399;SDS011;52007;50.834;-0.136;2022-07-03T04:43:07;3.22;;;0.75;;
65399;SDS011;52007;50.834;-0.136;2022-07-03T04:45:33;1.88;;;0.45;;
65399;SDS011;52007;50.834;-0.136;2022-07-03T04:47:59;1.67;;;0.65;;
65399;SDS011;52007;50.834;-0.136;2022-07-03T04:50:24;2.63;;;0.75;;
65399;SDS011;52007;50.834;-0.136;2022-07-03T04:52:50;1.88;;;0.68;;
65399;SDS011;52007;50.834;-0.136;2022-07-03T04:55:16;6.50;;;1.45;;
65399;SDS011;52007;50.834;-0.136;2022-07-03T04:57:42;2.58;;;0.80;;
65399;SDS011;52007;50.834;-0.136;2022-07-03T05:00:08;2.58;;;0.65;;
65399;SDS011;52007;50.834;-0.136;2022-07-03T05:02:34;4.13;;;0.82;;
65399;SDS011;52007;50.834;-0.136;2022-07-03T05:05:00;8.73;;;1.20;;
65399;SDS011;52007;50.834;-0.136;2022-07-03T05:07:25;4.32;;;0.80;;
65399;SDS011;52007;50.834;-0.136;2022-07-03T05:09:51;3.08;;;0.85;;
65399;SDS011;52007;50.834;-0.136;2022-07-03T05:12:17;4.78;;;1.48;;
65399;SDS011;52007;50.834;-0.136;2022-07-03T05:14:43;3.92;;;0.98;;
65399;SDS011;52007;50.834;-0.136;2022-07-03T05:17:09;9.45;;;1.00;;
65399;SDS011;52007;50.834;-0.136;2022-07-03T05:19:36;3.38;;;0.80;;
65399;SDS011;52007;50.834;-0.136;2022-07-03T05:22:03;4.57;;;0.85;;
65399;SDS011;52007;50.834;-0.136;2022-07-03T05:24:29;7.15;;;0.95;;
65399;SDS011;52007;50.834;-0.136;2022-07-03T05:26:54;6.28;;;0.82;;
65399;SDS011;52007;50.834;-0.136;2022-07-03T05:29:20;4.60;;;1.10;;
65399;SDS011;52007;50.834;-0.136;2022-07-03T05:31:46;7.82;;;1.35;;
65399;SDS011;52007;50.834;-0.136;2022-07-03T05:34:12;4.28;;;1.05;;
65399;SDS011;52007;50.834;-0.136;2022-07-03T05:36:38;6.13;;;1.30;;
65399;SDS011;52007;50.834;-0.136;2022-07-03T05:39:03;6.70;;;1.10;;
65399;SDS011;52007;50.834;-0.136;2022-07-03T05:41:48;5.10;;;0.82;;
65399;SDS011;52007;50.834;-0.136;2022-07-03T05:44:14;6.50;;;1.10;;
65399;SDS011;52007;50.834;-0.136;2022-07-03T05:46:39;4.13;;;0.93;;
65399;SDS011;52007;50.834;-0.136;2022-07-03T05:49:05;2.30;;;0.93;;
65399;SDS011;52007;50.834;-0.136;2022-07-03T05:51:31;4.38;;;0.98;;
65399;SDS011;52007;50.834;-0.136;2022-07-03T05:53:57;4.55;;;1.10;;
65399;SDS011;52007;50.834;-0.136;2022-07-03T05:56:22;9.95;;;1.40;;
65399;SDS011;52007;50.834;-0.136;2022-07-03T05:58:48;10.23;;;1.45;;
65399;SDS011;52007;50.834;-0.136;2022-07-03T06:01:14;10.95;;;1.45;;
65399;SDS011;52007;50.834;-0.136;2022-07-03T06:03:40;5.43;;;1.00;;
65399;SDS011;52007;50.834;-0.136;2022-07-03T06:06:05;5.03;;;1.20;;
65399;SDS011;52007;50.834;-0.136;2022-07-03T06:08:31;6.95;;;1.05;;
65399;SDS011;52007;50.834;-0.136;2022-07-03T06:10:57;4.13;;;0.98;;
65399;SDS011;52007;50.834;-0.136;2022-07-03T06:13:23;6.60;;;1.10;;
65399;SDS011;52007;50.834;-0.136;2022-07-03T06:15:49;5.53;;;1.08;;
65399;SDS011;52007;50.834;-0.136;2022-07-03T06:18:14;7.70;;;1.13;;
65399;SDS011;52007;50.834;-0.136;2022-07-03T06:20:40;5.32;;;1.40;;
65399;SDS011;52007;50.834;-0.136;2022-07-03T06:23:06;2.92;;;0.68;;
65399;SDS011;52007;50.834;-0.136;2022-07-03T06:25:32;4.50;;;1.00;;
65399;SDS011;52007;50.834;-0.136;2022-07-03T06:27:58;7.43;;;1.10;;
65399;SDS011;52007;50.834;-0.136;2022-07-03T06:30:24;3.55;;;0.70;;
65399;SDS011;52007;50.834;-0.136;2022-07-03T06:32:49;5.72;;;1.48;;
65399;SDS011;52007;50.834;-0.136;2022-07-03T06:35:15;6.18;;;1.08;;
65399;SDS011;52007;50.834;-0.136;2022-07-03T06:37:41;3.22;;;1.05;;
65399;SDS011;52007;50.834;-0.136;2022-07-03T06:40:07;5.10;;;0.85;;
65399;SDS011;52007;50.834;-0.136;2022-07-03T06:42:33;6.25;;;0.80;;
65399;SDS011;52007;50.834;-0.136;2022-07-03T06:44:58;6.80;;;0.77;;
65399;SDS011;52007;50.834;-0.136;2022-07-03T06:47:24;4.18;;;1.00;;
65399;SDS011;52007;50.834;-0.136;2022-07-03T06:49:50;6.68;;;0.93;;
65399;SDS011;52007;50.834;-0.136;2022-07-03T06:52:16;3.50;;;0.90;;
65399;SDS011;52007;50.834;-0.136;2022-07-03T06:54:42;4.95;;;1.42;;
65399;SDS011;52007;50.834;-0.136;2022-07-03T06:57:12;7.47;;;1.17;;
65399;SDS011;52007;50.834;-0.136;2022-07-03T06:59:40;8.40;;;1.02;;
65399;SDS011;52007;50.834;-0.136;2022-07-03T07:02:06;6.10;;;1.27;;
65399;SDS011;52007;50.834;-0.136;2022-07-03T07:04:33;5.25;;;1.20;;
65399;SDS011;52007;50.834;-0.136;2022-07-03T07:06:59;2.05;;;0.90;;
65399;SDS011;52007;50.834;-0.136;2022-07-03T07:09:24;2.58;;;0.80;;
65399;SDS011;52007;50.834;-0.136;2022-07-03T07:11:50;5.40;;;1.20;;
65399;SDS011;52007;50.834;-0.136;2022-07-03T07:14:16;8.13;;;1.05;;
65399;SDS011;52007;50.834;-0.136;2022-07-03T07:16:42;5.40;;;1.15;;
65399;SDS011;52007;50.834;-0.136;2022-07-03T07:19:08;8.15;;;1.23;;
65399;SDS011;52007;50.834;-0.136;2022-07-03T07:21:33;10.50;;;1.13;;
65399;SDS011;52007;50.834;-0.136;2022-07-03T07:23:59;12.45;;;1.08;;
65399;SDS011;52007;50.834;-0.136;2022-07-03T07:26:25;3.78;;;0.88;;
65399;SDS011;52007;50.834;-0.136;2022-07-03T07:28:51;4.40;;;1.02;;
65399;SDS011;52007;50.834;-0.136;2022-07-03T07:31:16;4.25;;;0.95;;
65399;SDS011;52007;50.834;-0.136;2022-07-03T07:33:42;4.80;;;1.02;;
65399;SDS011;52007;50.834;-0.136;2022-07-03T07:36:08;4.25;;;1.20;;
65399;SDS011;52007;50.834;-0.136;2022-07-03T07:38:34;7.55;;;1.30;;
65399;SDS011;52007;50.834;-0.136;2022-07-03T07:41:00;8.07;;;1.20;;
65399;SDS011;52007;50.834;-0.136;2022-07-03T07:43:25;4.15;;;1.17;;
65399;SDS011;52007;50.834;-0.136;2022-07-03T07:45:51;4.93;;;0.93;;
65399;SDS011;52007;50.834;-0.136;2022-07-03T07:48:18;4.55;;;1.05;;
65399;SDS011;52007;50.834;-0.136;2022-07-03T07:50:45;4.05;;;0.80;;
65399;SDS011;52007;50.834;-0.136;2022-07-03T07:53:15;9.32;;;1.10;;
65399;SDS011;52007;50.834;-0.136;2022-07-03T07:55:42;5.50;;;1.20;;
65399;SDS011;52007;50.834;-0.136;2022-07-03T07:58:08;2.63;;;0.85;;
65399;SDS011;52007;50.834;-0.136;2022-07-03T08:00:34;7.32;;;1.05;;
65399;SDS011;52007;50.834;-0.136;2022-07-03T08:03:00;9.45;;;1.38;;
65399;SDS011;52007;50.834;-0.136;2022-07-03T08:05:44;8.02;;;1.33;;
65399;SDS011;52007;50.834;-0.136;2022-07-03T08:08:13;3.72;;;1.27;;
65399;SDS011;52007;50.834;-0.136;2022-07-03T08:10:44;6.47;;;1.10;;
65399;SDS011;52007;50.834;-0.136;2022-07-03T08:13:14;6.80;;;1.15;;
65399;SDS011;52007;50.834;-0.136;2022-07-03T08:15:42;11.15;;;1.20;;
65399;SDS011;52007;50.834;-0.136;2022-07-03T08:18:09;7.35;;;1.40;;
65399;SDS011;52007;50.834;-0.136;2022-07-03T08:20:35;7.43;;;1.52;;
65399;SDS011;52007;50.834;-0.136;2022-07-03T08:23:02;8.27;;;1.30;;
65399;SDS011;52007;50.834;-0.136;2022-07-03T08:25:28;6.00;;;1.20;;
65399;SDS011;52007;50.834;-0.136;2022-07-03T08:27:55;8.10;;;1.15;;
65399;SDS011;52007;50.834;-0.136;2022-07-03T08:30:22;7.90;;;1.70;;
65399;SDS011;52007;50.834;-0.136;2022-07-03T08:32:52;11.50;;;1.42;;
65399;SDS011;52007;50.834;-0.136;2022-07-03T08:35:19;9.10;;;1.60;;
65399;SDS011;52007;50.834;-0.136;2022-07-03T08:37:45;7.53;;;1.42;;
65399;SDS011;52007;50.834;-0.136;2022-07-03T08:40:12;7.38;;;1.52;;
65399;SDS011;52007;50.834;-0.136;2022-07-03T08:42:48;5.18;;;1.48;;
65399;SDS011;52007;50.834;-0.136;2022-07-03T08:45:19;8.20;;;1.23;;
65399;SDS011;52007;50.834;-0.136;2022-07-03T08:47:48;5.80;;;0.90;;
65399;SDS011;52007;50.834;-0.136;2022-07-03T08:50:15;4.53;;;1.40;;
65399;SDS011;52007;50.834;-0.136;2022-07-03T08:52:47;5.53;;;1.25;;
65399;SDS011;52007;50.834;-0.136;2022-07-03T08:55:13;12.60;;;1.67;;
65399;SDS011;52007;50.834;-0.136;2022-07-03T08:57:43;4.07;;;0.98;;
65399;SDS011;52007;50.834;-0.136;2022-07-03T09:00:12;4.15;;;1.17;;
65399;SDS011;52007;50.834;-0.136;2022-07-03T09:02:46;4.47;;;1.33;;
65399;SDS011;52007;50.834;-0.136;2022-07-03T09:05:13;6.63;;;1.00;;
65399;SDS011;52007;50.834;-0.136;2022-07-03T09:07:40;4.85;;;0.93;;
65399;SDS011;52007;50.834;-0.136;2022-07-03T09:10:09;3.47;;;1.00;;
65399;SDS011;52007;50.834;-0.136;2022-07-03T09:12:38;5.18;;;1.10;;
65399;SDS011;52007;50.834;-0.136;2022-07-03T09:15:05;7.18;;;1.35;;
65399;SDS011;52007;50.834;-0.136;2022-07-03T09:17:32;8.38;;;1.75;;
65399;SDS011;52007;50.834;-0.136;2022-07-03T09:19:59;3.78;;;1.30;;
65399;SDS011;52007;50.834;-0.136;2022-07-03T09:22:30;9.68;;;1.83;;
65399;SDS011;52007;50.834;-0.136;2022-07-03T09:25:04;3.45;;;0.98;;
65399;SDS011;52007;50.834;-0.136;2022-07-03T09:27:31;3.13;;;1.08;;
65399;SDS011;52007;50.834;-0.136;2022-07-03T09:29:57;4.97;;;1.23;;
65399;SDS011;52007;50.834;-0.136;2022-07-03T09:32:30;5.45;;;0.90;;
65399;SDS011;52007;50.834;-0.136;2022-07-03T09:35:20;3.55;;;1.30;;
65399;SDS011;52007;50.834;-0.136;2022-07-03T09:37:52;5.85;;;1.05;;
65399;SDS011;52007;50.834;-0.136;2022-07-03T09:40:21;5.15;;;1.20;;
65399;SDS011;52007;50.834;-0.136;2022-07-03T09:43:06;10.93;;;1.25;;
65399;SDS011;52007;50.834;-0.136;2022-07-03T09:56:13;4.38;;;1.52;;
65399;SDS011;52007;50.834;-0.136;2022-07-03T09:58:41;8.95;;;1.35;;
65399;SDS011;52007;50.834;-0.136;2022-07-03T10:01:19;5.28;;;1.80;;
65399;SDS011;52007;50.834;-0.136;2022-07-03T10:03:54;6.18;;;1.20;;
65399;SDS011;52007;50.834;-0.136;2022-07-03T10:06:54;3.30;;;1.15;;
65399;SDS011;52007;50.834;-0.136;2022-07-03T10:09:23;5.68;;;1.23;;
65399;SDS011;52007;50.834;-0.136;2022-07-03T10:11:51;6.80;;;1.42;;
65399;SDS011;52007;50.834;-0.136;2022-07-03T10:14:19;8.15;;;1.00;;
65399;SDS011;52007;50.834;-0.136;2022-07-03T10:16:47;3.97;;;0.95;;
65399;SDS011;52007;50.834;-0.136;2022-07-03T10:21:43;6.80;;;1.42;;
65399;SDS011;52007;50.834;-0.136;2022-07-03T10:24:17;7.97;;;1.25;;
65399;SDS011;52007;50.834;-0.136;2022-07-03T10:26:44;7.15;;;1.60;;
65399;SDS011;52007;50.834;-0.136;2022-07-03T10:29:10;7.93;;;1.42;;
65399;SDS011;52007;50.834;-0.136;2022-07-03T10:31:37;4.97;;;1.00;;
65399;SDS011;52007;50.834;-0.136;2022-07-03T10:34:04;4.65;;;1.10;;
65399;SDS011;52007;50.834;-0.136;2022-07-03T10:36:31;6.10;;;1.05;;
65399;SDS011;52007;50.834;-0.136;2022-07-03T10:38:59;5.03;;;1.48;;
65399;SDS011;52007;50.834;-0.136;2022-07-03T10:41:39;16.88;;;1.40;;
65399;SDS011;52007;50.834;-0.136;2022-07-03T10:44:25;3.13;;;0.90;;
65399;SDS011;52007;50.834;-0.136;2022-07-03T10:50:14;5.78;;;1.40;;
65399;SDS011;52007;50.834;-0.136;2022-07-03T10:52:47;3.67;;;0.95;;
65399;SDS011;52007;50.834;-0.136;2022-07-03T10:55:13;6.20;;;1.60;;
65399;SDS011;52007;50.834;-0.136;2022-07-03T10:57:43;4.97;;;1.17;;
65399;SDS011;52007;50.834;-0.136;2022-07-03T11:00:45;6.05;;;1.63;;
65399;SDS011;52007;50.834;-0.136;2022-07-03T11:03:27;6.78;;;1.55;;
65399;SDS011;52007;50.834;-0.136;2022-07-03T11:06:19;8.07;;;1.77;;
65399;SDS011;52007;50.834;-0.136;2022-07-03T11:09:06;8.20;;;2.00;;
65399;SDS011;52007;50.834;-0.136;2022-07-03T11:11:49;7.63;;;1.55;;
65399;SDS011;52007;50.834;-0.136;2022-07-03T11:14:21;6.15;;;1.48;;
65399;SDS011;52007;50.834;-0.136;2022-07-03T11:16:49;8.07;;;1.60;;
65399;SDS011;52007;50.834;-0.136;2022-07-03T11:19:47;6.80;;;1.52;;
65399;SDS011;52007;50.834;-0.136;2022-07-03T11:22:53;9.85;;;1.60;;
65399;SDS011;52007;50.834;-0.136;2022-07-03T11:25:27;9.52;;;1.48;;
65399;SDS011;52007;50.834;-0.136;2022-07-03T11:28:06;8.00;;;1.27;;
65399;SDS011;52007;50.834;-0.136;2022-07-03T11:30:33;7.03;;;1.48;;
65399;SDS011;52007;50.834;-0.136;2022-07-03T11:32:59;5.78;;;1.25;;
65399;SDS011;52007;50.834;-0.136;2022-07-03T11:38:15;4.50;;;1.45;;
65399;SDS011;52007;50.834;-0.136;2022-07-03T11:40:43;6.30;;;1.60;;
65399;SDS011;52007;50.834;-0.136;2022-07-03T11:43:10;9.77;;;1.88;;
65399;SDS011;52007;50.834;-0.136;2022-07-03T11:45:40;11.05;;;1.30;;
65399;SDS011;52007;50.834;-0.136;2022-07-03T11:48:07;9.77;;;1.67;;
65399;SDS011;52007;50.834;-0.136;2022-07-03T11:50:40;3.95;;;0.93;;
65399;SDS011;52007;50.834;-0.136;2022-07-03T11:55:54;6.20;;;1.70;;
65399;SDS011;52007;50.834;-0.136;2022-07-03T11:58:22;6.65;;;2.42;;
65399;SDS011;52007;50.834;-0.136;2022-07-03T12:00:49;4.18;;;1.10;;
65399;SDS011;52007;50.834;-0.136;2022-07-03T12:03:21;8.45;;;1.70;;
65399;SDS011;52007;50.834;-0.136;2022-07-03T12:05:49;6.28;;;1.50;;
65399;SDS011;52007;50.834;-0.136;2022-07-03T12:08:30;5.78;;;1.40;;
65399;SDS011;52007;50.834;-0.136;2022-07-03T12:11:07;3.95;;;1.50;;
65399;SDS011;52007;50.834;-0.136;2022-07-03T12:13:35;10.50;;;2.00;;
65399;SDS011;52007;50.834;-0.136;2022-07-03T12:16:06;6.43;;;1.20;;
65399;SDS011;52007;50.834;-0.136;2022-07-03T12:18:43;8.82;;;1.48;;
65399;SDS011;52007;50.834;-0.136;2022-07-03T12:21:17;6.28;;;1.45;;
65399;SDS011;52007;50.834;-0.136;2022-07-03T12:26:11;7.47;;;1.40;;
65399;SDS011;52007;50.834;-0.136;2022-07-03T12:28:37;3.40;;;1.00;;
65399;SDS011;52007;50.834;-0.136;2022-07-03T12:31:04;11.55;;;1.77;;
65399;SDS011;52007;50.834;-0.136;2022-07-03T12:33:31;7.82;;;1.55;;
65399;SDS011;52007;50.834;-0.136;2022-07-03T12:36:07;11.45;;;1.98;;
65399;SDS011;52007;50.834;-0.136;2022-07-03T12:38:36;10.95;;;2.03;;
65399;SDS011;52007;50.834;-0.136;2022-07-03T12:41:05;6.05;;;1.60;;
65399;SDS011;52007;50.834;-0.136;2022-07-03T12:43:39;8.65;;;2.08;;
65399;SDS011;52007;50.834;-0.136;2022-07-03T12:49:00;5.25;;;1.40;;
65399;SDS011;52007;50.834;-0.136;2022-07-03T12:52:06;9.40;;;1.80;;
65399;SDS011;52007;50.834;-0.136;2022-07-03T12:54:32;6.65;;;1.63;;
65399;SDS011;52007;50.834;-0.136;2022-07-03T12:57:07;9.95;;;2.25;;
65399;SDS011;52007;50.834;-0.136;2022-07-03T13:02:33;7.07;;;1.50;;
65399;SDS011;52007;50.834;-0.136;2022-07-03T13:04:59;5.20;;;1.42;;
65399;SDS011;52007;50.834;-0.136;2022-07-03T13:07:41;6.57;;;1.58;;
65399;SDS011;52007;50.834;-0.136;2022-07-03T13:10:07;12.65;;;1.80;;
65399;SDS011;52007;50.834;-0.136;2022-07-03T13:12:34;7.63;;;1.60;;
65399;SDS011;52007;50.834;-0.136;2022-07-03T13:15:00;11.93;;;2.35;;
65399;SDS011;52007;50.834;-0.136;2022-07-03T13:20:15;10.52;;;2.50;;
65399;SDS011;52007;50.834;-0.136;2022-07-03T13:22:41;8.98;;;1.50;;
65399;SDS011;52007;50.834;-0.136;2022-07-03T13:25:07;6.28;;;1.42;;
65399;SDS011;52007;50.834;-0.136;2022-07-03T13:27:36;9.88;;;1.98;;
65399;SDS011;52007;50.834;-0.136;2022-07-03T13:30:02;8.98;;;1.83;;
65399;SDS011;52007;50.834;-0.136;2022-07-03T13:32:28;8.07;;;1.42;;
65399;SDS011;52007;50.834;-0.136;2022-07-03T13:34:56;11.95;;;2.17;;
65399;SDS011;52007;50.834;-0.136;2022-07-03T13:37:22;9.40;;;1.40;;
65399;SDS011;52007;50.834;-0.136;2022-07-03T13:39:48;7.97;;;2.03;;
65399;SDS011;52007;50.834;-0.136;2022-07-03T13:42:14;8.93;;;1.70;;
65399;SDS011;52007;50.834;-0.136;2022-07-03T13:44:40;6.18;;;1.55;;
65399;SDS011;52007;50.834;-0.136;2022-07-03T13:47:08;12.90;;;2.35;;
65399;SDS011;52007;50.834;-0.136;2022-07-03T13:49:34;8.52;;;1.80;;
65399;SDS011;52007;50.834;-0.136;2022-07-03T13:52:03;10.57;;;2.10;;
65399;SDS011;52007;50.834;-0.136;2022-07-03T13:54:29;6.32;;;1.95;;
65399;SDS011;52007;50.834;-0.136;2022-07-03T13:56:55;7.57;;;1.85;;
65399;SDS011;52007;50.834;-0.136;2022-07-03T13:59:23;14.00;;;2.80;;
65399;SDS011;52007;50.834;-0.136;2022-07-03T14:01:53;10.77;;;1.63;;
65399;SDS011;52007;50.834;-0.136;2022-07-03T14:04:19;7.70;;;1.70;;
65399;SDS011;52007;50.834;-0.136;2022-07-03T14:06:45;11.35;;;2.17;;
65399;SDS011;52007;50.834;-0.136;2022-07-03T14:09:20;10.13;;;1.58;;
65399;SDS011;52007;50.834;-0.136;2022-07-03T14:11:48;6.97;;;1.52;;
65399;SDS011;52007;50.834;-0.136;2022-07-03T14:14:15;9.90;;;1.83;;
65399;SDS011;52007;50.834;-0.136;2022-07-03T14:16:41;11.45;;;1.70;;
65399;SDS011;52007;50.834;-0.136;2022-07-03T14:19:09;10.45;;;1.75;;
65399;SDS011;52007;50.834;-0.136;2022-07-03T14:21:35;9.88;;;2.00;;
65399;SDS011;52007;50.834;-0.136;2022-07-03T14:24:03;12.52;;;2.80;;
65399;SDS011;52007;50.834;-0.136;2022-07-03T14:26:30;10.20;;;2.10;;
65399;SDS011;52007;50.834;-0.136;2022-07-03T14:29:18;5.88;;;1.50;;
65399;SDS011;52007;50.834;-0.136;2022-07-03T14:32:13;19.33;;;2.78;;
65399;SDS011;52007;50.834;-0.136;2022-07-03T14:34:54;10.23;;;2.30;;
65399;SDS011;52007;50.834;-0.136;2022-07-03T14:37:20;11.27;;;2.22;;
65399;SDS011;52007;50.834;-0.136;2022-07-03T14:39:47;10.90;;;1.67;;
65399;SDS011;52007;50.834;-0.136;2022-07-03T14:42:14;12.10;;;2.08;;
65399;SDS011;52007;50.834;-0.136;2022-07-03T14:44:40;8.98;;;2.03;;
65399;SDS011;52007;50.834;-0.136;2022-07-03T14:47:06;8.73;;;2.00;;
65399;SDS011;52007;50.834;-0.136;2022-07-03T14:49:32;9.27;;;1.70;;
65399;SDS011;52007;50.834;-0.136;2022-07-03T14:52:02;13.85;;;2.55;;
65399;SDS011;52007;50.834;-0.136;2022-07-03T14:54:30;10.02;;;2.28;;
65399;SDS011;52007;50.834;-0.136;2022-07-03T14:57:00;10.15;;;2.33;;
65399;SDS011;52007;50.834;-0.136;2022-07-03T14:59:34;12.63;;;2.60;;
65399;SDS011;52007;50.834;-0.136;2022-07-03T15:02:06;8.10;;;1.67;;
65399;SDS011;52007;50.834;-0.136;2022-07-03T15:04:58;16.45;;;2.20;;
65399;SDS011;52007;50.834;-0.136;2022-07-03T15:07:54;11.77;;;2.03;;
65399;SDS011;52007;50.834;-0.136;2022-07-03T15:10:26;11.82;;;2.00;;
65399;SDS011;52007;50.834;-0.136;2022-07-03T15:12:53;13.43;;;2.15;;
65399;SDS011;52007;50.834;-0.136;2022-07-03T15:15:20;7.05;;;1.75;;
65399;SDS011;52007;50.834;-0.136;2022-07-03T15:17:49;16.23;;;2.70;;
65399;SDS011;52007;50.834;-0.136;2022-07-03T15:20:18;7.97;;;2.10;;
65399;SDS011;52007;50.834;-0.136;2022-07-03T15:22:45;11.38;;;2.08;;
65399;SDS011;52007;50.834;-0.136;2022-07-03T15:25:12;10.27;;;2.05;;
65399;SDS011;52007;50.834;-0.136;2022-07-03T15:27:41;15.07;;;2.10;;
65399;SDS011;52007;50.834;-0.136;2022-07-03T15:30:07;10.43;;;2.00;;
65399;SDS011;52007;50.834;-0.136;2022-07-03T15:32:36;10.90;;;2.28;;
65399;SDS011;52007;50.834;-0.136;2022-07-03T15:35:02;8.13;;;1.92;;
65399;SDS011;52007;50.834;-0.136;2022-07-03T15:40:24;7.35;;;1.73;;
65399;SDS011;52007;50.834;-0.136;2022-07-03T15:53:49;11.90;;;2.30;;
65399;SDS011;52007;50.834;-0.136;2022-07-03T15:56:29;13.25;;;2.33;;
65399;SDS011;52007;50.834;-0.136;2022-07-03T15:59:04;21.08;;;2.97;;
65399;SDS011;52007;50.834;-0.136;2022-07-03T16:01:33;18.05;;;2.50;;
65399;SDS011;52007;50.834;-0.136;2022-07-03T16:04:30;14.32;;;2.78;;
65399;SDS011;52007;50.834;-0.136;2022-07-03T16:07:02;11.98;;;2.50;;
65399;SDS011;52007;50.834;-0.136;2022-07-03T16:09:30;11.93;;;2.22;;
65399;SDS011;52007;50.834;-0.136;2022-07-03T16:11:56;10.30;;;1.95;;